Карточка аэропорта USSS

Внимание!
Информация на этой странице в стадии наполнения.
Если вы не увидели какой-то информации, или заметили неточность - пожалуйста сообщите нам!
Спасибо!
Команда RU-STAFF
Название аэропортаКольцово
Название аэропорта (англ.)Koltsovo
Превышение766 ft. (233.5 m.)
Координаты56°44.586', 60°48.186'
Высота перехода900m
Эшелон переходаQFE>=739mm:FL050; QFE 712mm-738mm:FL060; QFE<=712mm:FL70
Коды ответчика5520-5557
Зона ОрВДЕкатеринбург РПИ (USSV)
Данные METARUSSS 152130Z 00000MPS CAVOK 07/06 Q1024 R26L/010060 R26R/010060 NOSIG RMK QFE747/0996
Проноз погоды (TAF)USSS 151955Z 1521/1621 27003MPS 6000 SCT020 TEMPO 1521/1602 0300 FG FM160300 32003G13MPS 9999 SCT030 FM161800 30003G08MPS 6000 SCT016
NOTAMshow/hide NOTAM
AWOS   TABLE

Информация о ВПП

ВПП Длина ВПП (м.) Покрытие Курс ВПП Частота ILS
26R3004Асфальтобетон255110.5
26L3026Бетон259109.5
08R3026Бетон79109.9
08L3004Асфальтобетон75111.7

Диспетчерские позиции

Позывной Наименование органа УВД Частота
USSS_R_APPКольцово-Круг118.7
USSS_GNDКольцово-Руление119.0
USSSFM1Машина сопровождения119.000
USSS_TWRКольцово-Старт124.3
USSS_APPКольцово-Подход125.9
USSS_ATIS_APPКольцово АТИС127.850
USSV_FSS_CTRКольцово Транзит131.900



Спутниковое изображение